createdAt,value
2018-07-09T00:00:25.453Z,17.03
2018-07-09T00:02:52.311Z,17.25
2018-07-09T00:05:19.304Z,17.01
2018-07-09T00:07:46.163Z,17.06
2018-07-09T00:10:29.457Z,16.91
2018-07-09T00:12:56.335Z,16.94
2018-07-09T00:15:23.414Z,17.18
2018-07-09T00:17:50.332Z,17.34
2018-07-09T00:20:17.215Z,17.37
2018-07-09T00:22:44.098Z,17.44
2018-07-09T00:25:11.003Z,17.32
2018-07-09T00:27:37.867Z,17.28
2018-07-09T00:30:04.773Z,17.25
2018-07-09T00:32:31.647Z,17.35
2018-07-09T00:34:58.564Z,17.24
2018-07-09T00:37:25.427Z,17.20
2018-07-09T00:39:52.282Z,17.36
2018-07-09T00:42:19.183Z,17.25
2018-07-09T00:44:46.065Z,17.04
2018-07-09T00:47:13.147Z,16.86
2018-07-09T00:49:40.022Z,16.86
2018-07-09T00:52:06.911Z,16.89
2018-07-09T00:54:33.777Z,16.91
2018-07-09T00:57:00.632Z,16.88
2018-07-09T00:59:27.503Z,16.89
2018-07-09T01:01:54.376Z,16.66
2018-07-09T01:04:23.280Z,16.55
2018-07-09T01:06:50.147Z,16.62
2018-07-09T01:09:17.081Z,16.71
2018-07-09T01:11:46.251Z,16.83
2018-07-09T01:14:13.184Z,16.83
2018-07-09T01:16:40.059Z,16.95
2018-07-09T01:19:06.959Z,17.00
2018-07-09T01:21:33.823Z,16.99
2018-07-09T01:24:00.696Z,17.00
2018-07-09T01:26:28.388Z,16.98
2018-07-09T01:28:55.275Z,17.01
2018-07-09T01:31:22.156Z,16.90
2018-07-09T01:33:49.017Z,16.95
2018-07-09T01:36:15.873Z,16.81
2018-07-09T01:38:42.739Z,16.73
2018-07-09T01:41:09.596Z,16.59
2018-07-09T01:43:36.479Z,16.50
2018-07-09T01:46:03.352Z,16.35
2018-07-09T01:48:30.266Z,16.44
2018-07-09T01:50:57.163Z,16.31
2018-07-09T01:53:24.079Z,16.25
2018-07-09T01:55:50.955Z,16.23
2018-07-09T01:58:17.823Z,16.16
2018-07-09T02:00:44.751Z,16.04
2018-07-09T02:03:11.616Z,16.08
2018-07-09T02:05:38.504Z,16.18
2018-07-09T02:08:05.416Z,16.17
2018-07-09T02:10:32.291Z,16.06
2018-07-09T02:12:59.175Z,16.06
2018-07-09T02:15:29.794Z,16.35
2018-07-09T02:17:56.670Z,16.28
2018-07-09T02:20:23.542Z,16.54
2018-07-09T02:22:50.439Z,16.24
2018-07-09T02:25:17.324Z,16.11
2018-07-09T02:27:44.199Z,16.14
2018-07-09T02:30:11.084Z,15.82
2018-07-09T02:32:37.944Z,16.17
2018-07-09T02:35:04.927Z,15.74
2018-07-09T02:37:31.816Z,15.82
2018-07-09T02:39:58.755Z,15.73
2018-07-09T02:42:25.620Z,16.01
2018-07-09T02:44:52.566Z,15.68
2018-07-09T02:47:19.439Z,16.07
2018-07-09T02:49:46.384Z,15.63
2018-07-09T02:52:13.244Z,15.64
2018-07-09T02:54:40.121Z,15.55
2018-07-09T02:57:06.988Z,15.43
2018-07-09T02:59:33.850Z,15.25
2018-07-09T03:02:00.712Z,15.21
2018-07-09T03:04:27.599Z,15.22
2018-07-09T03:06:54.495Z,15.26
2018-07-09T03:09:21.366Z,15.29
2018-07-09T03:11:48.237Z,15.30
2018-07-09T03:14:15.139Z,15.28
2018-07-09T03:16:42.013Z,15.29
2018-07-09T03:19:08.960Z,15.16
2018-07-09T03:21:35.812Z,15.57
2018-07-09T03:24:02.667Z,15.18
2018-07-09T03:26:29.507Z,15.03
2018-07-09T03:28:56.439Z,15.00
2018-07-09T03:31:23.293Z,14.99
2018-07-09T03:33:50.255Z,15.18
2018-07-09T03:36:17.155Z,15.23
2018-07-09T03:38:44.020Z,15.36
2018-07-09T03:41:10.952Z,15.38
2018-07-09T03:43:37.864Z,15.94
2018-07-09T03:46:04.746Z,15.80
2018-07-09T03:48:31.619Z,15.85
2018-07-09T03:50:58.483Z,16.51
2018-07-09T03:53:25.364Z,16.31
2018-07-09T03:55:52.232Z,16.66
2018-07-09T03:58:19.112Z,16.74
2018-07-09T04:00:45.976Z,17.12
2018-07-09T04:03:12.906Z,17.61
2018-07-09T04:05:39.759Z,17.88
2018-07-09T04:08:06.691Z,18.42
2018-07-09T04:10:33.564Z,18.81
2018-07-09T04:13:00.424Z,19.23
2018-07-09T04:15:27.298Z,19.86
2018-07-09T04:17:54.158Z,19.87
2018-07-09T04:20:21.025Z,19.50
2018-07-09T04:22:47.904Z,19.53
2018-07-09T04:25:14.757Z,19.40
2018-07-09T04:27:41.627Z,19.68
2018-07-09T04:30:08.530Z,19.87
2018-07-09T04:32:35.387Z,20.05
2018-07-09T04:35:02.295Z,20.05
2018-07-09T04:37:29.191Z,20.26
2018-07-09T04:39:56.071Z,20.22
2018-07-09T04:42:22.952Z,20.34
2018-07-09T04:44:49.825Z,20.38
2018-07-09T04:47:18.130Z,20.51
2018-07-09T04:49:45.835Z,20.70
2018-07-09T04:52:13.871Z,20.86
2018-07-09T04:54:41.584Z,20.96
2018-07-09T04:57:08.456Z,21.46
2018-07-09T04:59:35.526Z,21.65
2018-07-09T05:02:02.412Z,21.51
2018-07-09T05:04:29.275Z,21.29
2018-07-09T05:06:56.155Z,20.87
2018-07-09T05:09:23.030Z,20.34
2018-07-09T05:11:49.908Z,20.29
2018-07-09T05:14:17.151Z,20.38
2018-07-09T05:16:44.022Z,20.30
2018-07-09T05:19:11.735Z,20.44
2018-07-09T05:21:38.643Z,20.48
2018-07-09T05:24:05.551Z,20.63
2018-07-09T05:26:32.437Z,20.57
2018-07-09T05:28:59.311Z,20.67
2018-07-09T05:31:27.057Z,20.80
2018-07-09T05:33:57.909Z,20.95
2018-07-09T05:36:25.139Z,20.96
2018-07-09T05:38:52.012Z,21.29
2018-07-09T05:41:18.947Z,21.29
2018-07-09T05:43:45.811Z,21.53
2018-07-09T05:46:12.718Z,21.56
2018-07-09T05:48:39.844Z,21.53
2018-07-09T05:51:06.712Z,21.45
2018-07-09T05:53:33.572Z,21.23
2018-07-09T05:56:00.496Z,21.33
2018-07-09T05:58:27.397Z,21.34
2018-07-09T06:00:54.329Z,21.26
2018-07-09T06:03:21.251Z,21.39
2018-07-09T06:05:48.116Z,21.45
2018-07-09T06:08:15.079Z,21.47
2018-07-09T06:10:42.001Z,21.61
2018-07-09T06:13:08.858Z,21.98
2018-07-09T06:15:35.735Z,21.96
2018-07-09T06:18:02.654Z,22.06
2018-07-09T06:20:29.578Z,22.02
2018-07-09T06:22:56.439Z,22.00
2018-07-09T06:25:23.361Z,21.77
2018-07-09T06:27:50.199Z,21.87
2018-07-09T06:30:17.075Z,21.62
2018-07-09T06:32:44.095Z,21.77
2018-07-09T06:35:10.973Z,21.93
2018-07-09T06:37:37.879Z,22.16
2018-07-09T06:40:04.873Z,22.02
2018-07-09T06:42:31.734Z,22.11
2018-07-09T06:44:58.615Z,21.97
2018-07-09T06:47:25.483Z,22.37
2018-07-09T06:49:52.352Z,22.39
2018-07-09T06:52:19.413Z,22.44
2018-07-09T06:54:46.316Z,22.51
2018-07-09T06:57:13.205Z,22.45
2018-07-09T06:59:40.084Z,22.33
2018-07-09T07:02:07.021Z,22.26
2018-07-09T07:04:33.907Z,22.22
2018-07-09T07:07:00.784Z,22.71
2018-07-09T07:09:27.963Z,22.67
2018-07-09T07:11:55.687Z,22.78
2018-07-09T07:14:22.625Z,22.53
2018-07-09T07:16:49.464Z,22.71
2018-07-09T07:19:16.382Z,23.06
2018-07-09T07:21:43.257Z,23.13
2018-07-09T07:24:10.153Z,23.33
2018-07-09T07:26:37.050Z,23.20
2018-07-09T07:29:03.987Z,23.35
2018-07-09T07:31:30.887Z,23.51
2018-07-09T07:33:57.732Z,23.55
2018-07-09T07:36:24.591Z,23.51
2018-07-09T07:38:51.460Z,23.55
2018-07-09T07:41:18.470Z,23.67
2018-07-09T07:43:45.380Z,23.62
2018-07-09T07:46:12.254Z,23.57
2018-07-09T07:48:39.120Z,23.65
2018-07-09T07:51:06.002Z,23.66
2018-07-09T07:53:32.887Z,23.90
2018-07-09T07:55:59.783Z,23.73
2018-07-09T07:58:26.623Z,24.15
2018-07-09T08:00:53.480Z,24.39
2018-07-09T08:03:20.399Z,24.42
2018-07-09T08:05:47.269Z,24.35
2018-07-09T08:08:14.151Z,24.38
2018-07-09T08:10:41.028Z,24.13
2018-07-09T08:13:27.983Z,24.32
2018-07-09T08:15:34.829Z,24.10
2018-07-09T08:18:01.766Z,24.36
2018-07-09T08:20:28.714Z,24.29
2018-07-09T08:22:55.786Z,24.31
2018-07-09T08:25:22.665Z,24.66
2018-07-09T08:27:49.535Z,24.65
2018-07-09T08:30:16.518Z,24.83
2018-07-09T08:32:43.327Z,24.93
2018-07-09T08:35:10.347Z,24.93
2018-07-09T08:37:37.237Z,24.74
2018-07-09T08:40:04.120Z,24.89
2018-07-09T08:42:31.000Z,24.89
2018-07-09T08:44:57.916Z,24.69
2018-07-09T08:47:24.819Z,24.85
2018-07-09T08:49:51.694Z,24.85
2018-07-09T08:52:18.639Z,24.92
2018-07-09T08:54:45.504Z,25.03
2018-07-09T08:57:12.430Z,24.84
2018-07-09T08:59:39.375Z,24.67
2018-07-09T09:02:06.275Z,24.92
2018-07-09T09:04:33.160Z,25.07
2018-07-09T09:07:00.109Z,25.08
2018-07-09T09:09:27.018Z,25.06
2018-07-09T09:11:53.944Z,25.27
2018-07-09T09:14:20.837Z,25.24
2018-07-09T09:16:47.707Z,25.16
2018-07-09T09:19:14.595Z,25.65
2018-07-09T09:21:41.536Z,25.36
2018-07-09T09:24:08.439Z,25.59
2018-07-09T09:26:35.307Z,25.75
2018-07-09T09:29:02.189Z,25.60
2018-07-09T09:31:29.110Z,25.78
2018-07-09T09:33:55.980Z,25.56
2018-07-09T09:36:22.911Z,25.16
2018-07-09T09:38:49.836Z,25.82
2018-07-09T09:41:16.700Z,26.03
2018-07-09T09:43:43.599Z,26.09
2018-07-09T09:46:10.547Z,25.96
2018-07-09T09:48:37.411Z,26.10
2018-07-09T09:51:04.363Z,25.92
2018-07-09T09:53:31.175Z,26.13
2018-07-09T09:55:58.072Z,26.20
2018-07-09T09:58:24.939Z,25.93
2018-07-09T10:00:52.138Z,25.99
2018-07-09T10:03:19.091Z,26.11
2018-07-09T10:05:46.584Z,25.78
2018-07-09T10:08:13.492Z,25.92
2018-07-09T10:10:40.385Z,26.18
2018-07-09T10:13:07.327Z,25.95
2018-07-09T10:15:34.207Z,26.20
2018-07-09T10:18:01.110Z,26.47
2018-07-09T10:20:28.046Z,26.67
2018-07-09T10:22:55.024Z,26.33
2018-07-09T10:25:21.962Z,26.60
2018-07-09T10:27:48.827Z,26.66
2018-07-09T10:30:15.691Z,26.72
2018-07-09T10:32:42.608Z,26.52
2018-07-09T10:35:09.688Z,26.73
2018-07-09T10:37:36.573Z,26.85
2018-07-09T10:40:03.812Z,26.83
2018-07-09T10:42:30.703Z,26.83
2018-07-09T10:44:57.649Z,27.04
2018-07-09T10:47:24.900Z,26.97
2018-07-09T10:49:51.785Z,27.06
2018-07-09T10:52:18.703Z,26.70
2018-07-09T10:54:45.607Z,26.86
2018-07-09T10:57:12.475Z,26.69
2018-07-09T10:59:39.361Z,26.84
2018-07-09T11:02:06.255Z,26.83
2018-07-09T11:04:33.135Z,27.19
2018-07-09T11:07:00.220Z,26.79
2018-07-09T11:09:27.092Z,27.76
2018-07-09T11:11:53.987Z,27.39
2018-07-09T11:14:20.903Z,27.17
2018-07-09T11:16:47.772Z,26.98
2018-07-09T11:19:14.646Z,27.30
2018-07-09T11:21:41.671Z,27.46
2018-07-09T11:24:08.584Z,27.50
2018-07-09T11:26:35.476Z,27.65
2018-07-09T11:29:02.407Z,27.45
2018-07-09T11:31:29.319Z,27.57
2018-07-09T11:33:56.382Z,27.87
2018-07-09T11:36:23.312Z,27.71
2018-07-09T11:38:50.200Z,27.18
2018-07-09T11:41:17.154Z,27.87
2018-07-09T11:43:44.039Z,28.00
2018-07-09T11:46:10.928Z,28.21
2018-07-09T11:48:37.791Z,27.89
2018-07-09T11:51:04.679Z,27.74
2018-07-09T11:53:31.679Z,27.83
2018-07-09T11:55:58.580Z,27.63
2018-07-09T11:58:25.459Z,27.92
2018-07-09T12:00:52.345Z,28.09
2018-07-09T12:03:19.251Z,28.06
2018-07-09T12:05:46.123Z,28.04
2018-07-09T12:08:13.012Z,28.20
2018-07-09T12:10:39.884Z,28.33
2018-07-09T12:13:06.754Z,28.87
2018-07-09T12:15:33.624Z,28.41
2018-07-09T12:18:00.539Z,27.87
2018-07-09T12:20:27.480Z,28.23
2018-07-09T12:22:54.401Z,28.14
2018-07-09T12:25:21.292Z,28.35
2018-07-09T12:27:48.207Z,28.14
2018-07-09T12:30:15.075Z,27.70
2018-07-09T12:32:41.957Z,27.73
2018-07-09T12:35:08.835Z,28.04
2018-07-09T12:37:35.709Z,28.24
2018-07-09T12:40:02.600Z,28.28
2018-07-09T12:42:29.483Z,28.10
2018-07-09T12:44:56.415Z,28.03
2018-07-09T12:47:23.319Z,28.14
2018-07-09T12:49:50.259Z,28.17
2018-07-09T12:52:17.082Z,28.46
2018-07-09T12:54:44.005Z,28.58
2018-07-09T12:57:10.894Z,29.03
2018-07-09T12:59:37.761Z,28.71
2018-07-09T13:02:04.662Z,29.17
2018-07-09T13:04:31.530Z,28.58
2018-07-09T13:06:58.462Z,28.71
2018-07-09T13:09:25.339Z,29.03
2018-07-09T13:11:52.411Z,29.56
2018-07-09T13:14:19.292Z,29.00
2018-07-09T13:16:46.155Z,28.92
2018-07-09T13:19:13.015Z,29.75
2018-07-09T13:21:39.903Z,29.90
2018-07-09T13:24:06.866Z,29.67
2018-07-09T13:26:33.728Z,29.90
2018-07-09T13:29:00.572Z,30.56
2018-07-09T13:31:27.937Z,29.81
2018-07-09T13:33:54.823Z,29.46
2018-07-09T13:36:21.719Z,28.80
2018-07-09T13:38:48.612Z,28.48
2018-07-09T13:41:15.479Z,29.02
2018-07-09T13:43:42.373Z,29.25
2018-07-09T13:46:09.366Z,29.03
2018-07-09T13:48:36.295Z,28.85
2018-07-09T13:51:03.284Z,28.39
2018-07-09T13:53:30.257Z,28.51
2018-07-09T13:55:58.170Z,28.47
2018-07-09T13:58:25.135Z,28.28
2018-07-09T14:00:52.039Z,28.38
2018-07-09T14:03:18.943Z,28.40
2018-07-09T14:05:45.832Z,28.95
2018-07-09T14:08:12.821Z,28.89
2018-07-09T14:10:39.707Z,28.68
2018-07-09T14:13:06.790Z,28.61
2018-07-09T14:15:33.951Z,28.77
2018-07-09T14:18:01.001Z,28.59
2018-07-09T14:20:32.052Z,28.60
2018-07-09T14:22:59.635Z,28.44
2018-07-09T14:25:26.689Z,28.73
2018-07-09T14:27:53.691Z,28.58
2018-07-09T14:30:20.608Z,28.67
2018-07-09T14:32:47.594Z,29.29
2018-07-09T14:35:15.440Z,29.07
2018-07-09T14:37:42.359Z,29.60
2018-07-09T14:40:09.255Z,28.74
2018-07-09T14:42:36.150Z,28.27
2018-07-09T14:45:04.276Z,29.04
2018-07-09T14:47:31.274Z,29.86
2018-07-09T14:49:58.293Z,30.26
2018-07-09T14:52:25.215Z,30.43
2018-07-09T14:54:52.122Z,30.69
2018-07-09T14:57:21.154Z,30.16
2018-07-09T14:59:48.088Z,29.67
2018-07-09T15:02:15.124Z,29.55
2018-07-09T15:04:42.076Z,29.35
2018-07-09T15:07:09.082Z,29.42
2018-07-09T15:09:36.049Z,29.12
2018-07-09T15:12:03.543Z,28.73
2018-07-09T15:14:32.704Z,28.63
2018-07-09T15:16:59.595Z,29.69
2018-07-09T15:19:26.564Z,29.81
2018-07-09T15:21:53.570Z,31.15
2018-07-09T15:24:20.451Z,32.12
2018-07-09T15:26:47.531Z,32.06
2018-07-09T15:29:16.408Z,30.91
2018-07-09T15:32:01.202Z,30.25
2018-07-09T15:34:28.159Z,31.28
2018-07-09T15:36:55.999Z,32.04
2018-07-09T15:39:26.339Z,32.62
2018-07-09T15:41:53.251Z,32.69
2018-07-09T15:44:20.344Z,31.89
2018-07-09T15:46:47.986Z,32.06
2018-07-09T15:49:17.487Z,32.31
2018-07-09T15:51:45.021Z,32.48
2018-07-09T15:54:15.435Z,32.09
2018-07-09T15:56:45.458Z,32.49
2018-07-09T15:59:13.079Z,32.47
2018-07-09T16:01:40.998Z,32.28
2018-07-09T16:04:07.923Z,31.64
2018-07-09T16:06:34.855Z,30.97
2018-07-09T16:09:01.795Z,30.63
2018-07-09T16:11:29.546Z,31.57
2018-07-09T16:13:56.550Z,32.28
2018-07-09T16:16:23.595Z,32.76
2018-07-09T16:18:50.479Z,33.04
2018-07-09T16:21:17.375Z,33.02
2018-07-09T16:23:44.340Z,32.23
2018-07-09T16:26:12.221Z,31.11
2018-07-09T16:28:39.076Z,30.16
2018-07-09T16:31:05.941Z,30.51
2018-07-09T16:33:32.810Z,31.31
2018-07-09T16:35:59.860Z,31.07
2018-07-09T16:38:26.751Z,30.51
2018-07-09T16:40:53.661Z,29.78
2018-07-09T16:43:20.670Z,28.94
2018-07-09T16:45:47.544Z,28.47
2018-07-09T16:48:14.439Z,28.66
2018-07-09T16:50:41.341Z,28.40
2018-07-09T16:53:08.223Z,28.52
2018-07-09T16:55:35.697Z,28.21
2018-07-09T16:58:02.560Z,28.08
2018-07-09T17:00:29.450Z,28.18
2018-07-09T17:02:56.383Z,28.97
2018-07-09T17:05:23.326Z,29.81
2018-07-09T17:07:50.239Z,30.79
2018-07-09T17:10:17.175Z,31.51
2018-07-09T17:12:44.095Z,31.49
2018-07-09T17:15:11.072Z,31.71
2018-07-09T17:17:37.942Z,30.24
2018-07-09T17:20:04.964Z,29.79
2018-07-09T17:22:31.915Z,30.69
2018-07-09T17:24:58.813Z,30.95
2018-07-09T17:27:26.756Z,30.27
2018-07-09T17:29:53.654Z,30.01
2018-07-09T17:32:20.608Z,29.84
2018-07-09T17:34:47.469Z,29.81
2018-07-09T17:37:14.375Z,29.66
2018-07-09T17:39:41.271Z,29.36
2018-07-09T17:42:08.238Z,28.45
2018-07-09T17:44:35.480Z,28.35
2018-07-09T17:47:02.469Z,28.21
2018-07-09T17:49:29.690Z,27.26
2018-07-09T17:51:56.642Z,26.91
2018-07-09T17:54:23.625Z,25.98
2018-07-09T17:56:50.937Z,26.01
2018-07-09T17:59:17.792Z,25.98
2018-07-09T18:01:44.659Z,25.92
2018-07-09T18:04:11.511Z,25.81
2018-07-09T18:06:38.379Z,25.79
2018-07-09T18:09:05.794Z,25.92
2018-07-09T18:11:32.655Z,26.01
2018-07-09T18:13:59.596Z,26.45
2018-07-09T18:16:26.439Z,26.04
2018-07-09T18:18:53.307Z,25.69
2018-07-09T18:21:20.186Z,25.45
2018-07-09T18:23:47.025Z,25.49
2018-07-09T18:26:13.920Z,24.99
2018-07-09T18:28:40.828Z,24.77
2018-07-09T18:31:07.647Z,24.65
2018-07-09T18:33:34.508Z,24.65
2018-07-09T18:36:01.387Z,24.46
2018-07-09T18:38:28.306Z,24.46
2018-07-09T18:40:56.354Z,24.18
2018-07-09T18:43:23.215Z,24.06
2018-07-09T18:45:50.075Z,23.80
2018-07-09T18:48:16.929Z,24.01
2018-07-09T18:50:43.795Z,23.55
2018-07-09T18:53:10.652Z,23.28
2018-07-09T18:55:37.520Z,23.03
2018-07-09T18:58:04.383Z,22.88
2018-07-09T19:00:31.291Z,22.76
2018-07-09T19:02:58.135Z,22.64
2018-07-09T19:05:36.672Z,22.53
2018-07-09T19:08:03.538Z,22.39
2018-07-09T19:10:30.501Z,22.21
2018-07-09T19:12:57.540Z,22.01
2018-07-09T19:15:24.403Z,21.92
2018-07-09T19:18:07.143Z,21.78
2018-07-09T19:21:05.453Z,21.49
2018-07-09T19:23:31.495Z,21.52
2018-07-09T19:25:57.649Z,21.48
2018-07-09T19:28:23.765Z,21.74
2018-07-09T19:30:49.756Z,21.33
2018-07-09T19:33:15.807Z,21.25
2018-07-09T19:35:41.889Z,21.22
2018-07-09T19:38:07.958Z,21.12
2018-07-09T19:40:34.999Z,20.99
2018-07-09T19:43:01.115Z,20.89
2018-07-09T19:45:27.159Z,20.77
2018-07-09T19:47:53.289Z,20.70
2018-07-09T19:50:19.380Z,20.81
2018-07-09T19:52:45.467Z,20.58
2018-07-09T19:55:11.524Z,20.47
2018-07-09T19:57:37.592Z,20.34
2018-07-09T20:00:03.648Z,20.30
2018-07-09T20:02:29.729Z,20.56
2018-07-09T20:04:55.926Z,20.71
2018-07-09T20:07:22.008Z,20.31
2018-07-09T20:09:53.898Z,20.17
2018-07-09T20:12:25.764Z,20.47
2018-07-09T20:14:57.715Z,20.51
2018-07-09T20:17:27.910Z,20.44
2018-07-09T20:19:54.042Z,20.06
2018-07-09T20:22:20.162Z,19.92
2018-07-09T20:24:46.225Z,19.91
2018-07-09T20:27:12.343Z,19.85
2018-07-09T20:29:38.364Z,19.71
2018-07-09T20:32:04.409Z,19.78
2018-07-09T20:34:30.483Z,19.74
2018-07-09T20:36:56.561Z,19.60
2018-07-09T20:39:22.615Z,19.60
2018-07-09T20:41:48.756Z,19.71
2018-07-09T20:44:14.826Z,19.79
2018-07-09T20:46:40.996Z,19.76
2018-07-09T20:49:07.051Z,19.68
2018-07-09T20:51:34.260Z,19.67
2018-07-09T20:54:00.601Z,19.59
2018-07-09T20:56:26.704Z,19.42
2018-07-09T20:58:53.163Z,19.38
2018-07-09T21:01:19.272Z,19.40
2018-07-09T21:03:45.579Z,19.29
2018-07-09T21:06:11.660Z,19.22
2018-07-09T21:08:37.720Z,19.16
2018-07-09T21:11:03.813Z,19.43
2018-07-09T21:13:30.551Z,19.10
2018-07-09T21:15:56.744Z,19.06
2018-07-09T21:18:22.672Z,19.10
2018-07-09T21:20:48.748Z,19.16
2018-07-09T21:23:14.828Z,19.35
2018-07-09T21:25:40.900Z,19.48
2018-07-09T21:28:06.943Z,19.60
2018-07-09T21:30:32.998Z,19.77
2018-07-09T21:32:59.235Z,19.77
2018-07-09T21:35:31.601Z,19.82
2018-07-09T21:37:57.764Z,19.81
2018-07-09T21:40:23.731Z,19.83
2018-07-09T21:42:49.782Z,19.78
2018-07-09T21:45:16.138Z,19.78
2018-07-09T21:47:42.229Z,19.66
2018-07-09T21:50:08.292Z,19.68
2018-07-09T21:52:34.352Z,19.65
2018-07-09T21:55:00.435Z,19.59
2018-07-09T21:57:26.444Z,19.48
2018-07-09T21:59:53.515Z,19.33
2018-07-09T22:02:19.571Z,19.26
2018-07-09T22:04:45.617Z,19.14
2018-07-09T22:07:11.667Z,19.08
2018-07-09T22:09:37.729Z,18.97
2018-07-09T22:12:03.779Z,18.84
2018-07-09T22:14:29.840Z,18.68
2018-07-09T22:16:55.905Z,18.59
2018-07-09T22:19:21.947Z,18.70
2018-07-09T22:21:48.019Z,18.59
2018-07-09T22:24:14.083Z,18.50
2018-07-09T22:26:40.140Z,18.42
2018-07-09T22:29:06.193Z,18.51
2018-07-09T22:31:33.060Z,18.26
2018-07-09T22:33:59.940Z,18.20
2018-07-09T22:36:26.820Z,18.65
2018-07-09T22:38:53.671Z,18.26
2018-07-09T22:41:20.591Z,18.19
2018-07-09T22:43:58.943Z,18.08
2018-07-09T22:46:25.799Z,18.04
2018-07-09T22:48:53.771Z,18.05
2018-07-09T22:51:20.759Z,18.04
2018-07-09T22:53:47.488Z,18.17
2018-07-09T22:56:14.378Z,18.04
2018-07-09T22:58:41.979Z,18.15
2018-07-09T23:01:08.888Z,18.15
2018-07-09T23:03:35.735Z,18.17
2018-07-09T23:06:02.638Z,18.23
2018-07-09T23:08:29.523Z,18.31
2018-07-09T23:11:21.871Z,18.27
2018-07-09T23:14:32.759Z,18.30
2018-07-09T23:17:12.296Z,18.32
2018-07-09T23:20:17.167Z,18.33
2018-07-09T23:22:43.235Z,18.35
2018-07-09T23:25:09.284Z,18.43
2018-07-09T23:27:35.373Z,18.36
2018-07-09T23:30:01.459Z,18.35
2018-07-09T23:32:27.552Z,18.43
2018-07-09T23:34:53.612Z,18.42
2018-07-09T23:37:19.654Z,18.27
2018-07-09T23:39:45.779Z,18.36
2018-07-09T23:42:11.875Z,18.33
2018-07-09T23:44:37.951Z,18.29
2018-07-09T23:47:03.990Z,18.28
2018-07-09T23:49:30.103Z,18.27
2018-07-09T23:51:56.160Z,18.30
2018-07-09T23:54:22.207Z,18.27
2018-07-09T23:57:30.767Z,18.21
